Time;durP1;ratioP1;P1;durP2;ratioP2;P2;SDS_P1;SDS_P2;PMS_P1;PMS_P2;Temp;Humidity;BMP_temperature;BMP_pressure;BME280_temperature;BME280_humidity;BME280_pressure;Samples;Min_cycle;Max_cycle;Signal;HPM_P1;HPM_P2
2023/03/04 00:00:21;;;;;;;14.88;2.47;;;;;;;9.35;49.27;102567.09;5060913;27;124150;-64
2023/03/04 00:02:48;;;;;;;16.00;2.53;;;;;;;9.33;49.35;102560.94;5069316;27;109353;-65
2023/03/04 00:05:15;;;;;;;14.73;2.80;;;;;;;9.32;49.62;102564.47;5059978;27;109229;-64
2023/03/04 00:07:42;;;;;;;12.95;2.80;;;;;;;9.32;49.51;102564.47;5055227;27;124897;-65
2023/03/04 00:10:10;;;;;;;20.13;2.97;;;;;;;9.32;49.93;102564.47;5070071;27;124314;-65
2023/03/04 00:12:38;;;;;;;11.13;2.70;;;;;;;9.34;49.63;102562.69;5045534;27;108978;-66
2023/03/04 00:15:05;;;;;;;18.58;2.45;;;;;;;9.34;49.77;102558.28;5069286;27;110388;-65
2023/03/04 00:17:32;;;;;;;17.17;3.38;;;;;;;9.35;49.48;102564.44;5069028;27;124019;-64
2023/03/04 00:20:00;;;;;;;16.08;2.75;;;;;;;9.35;49.53;102559.16;5073543;27;123925;-64
2023/03/04 00:22:27;;;;;;;20.52;2.97;;;;;;;9.34;49.77;102560.03;5053871;27;110227;-64
2023/03/04 00:24:54;;;;;;;10.70;2.30;;;;;;;9.34;49.46;102557.41;5054518;27;110342;-64
2023/03/04 00:27:21;;;;;;;13.25;2.63;;;;;;;9.31;49.48;102562.75;5061628;27;124315;-64
2023/03/04 00:29:48;;;;;;;14.73;2.75;;;;;;;9.28;49.63;102557.47;5065678;27;123995;-64
2023/03/04 00:32:17;;;;;;;14.98;1.90;;;;;;;9.26;49.60;102548.69;5044649;27;108746;-65
2023/03/04 00:34:44;;;;;;;12.20;2.15;;;;;;;9.26;49.53;102549.56;5046463;27;108255;-65
2023/03/04 00:37:11;;;;;;;15.15;2.83;;;;;;;9.27;49.54;102550.47;5066121;27;124269;-64
2023/03/04 00:39:39;;;;;;;8.50;2.08;;;;;;;9.28;49.71;102555.69;5051234;27;123314;-64
2023/03/04 00:42:06;;;;;;;13.63;2.38;;;;;;;9.28;49.61;102558.34;5059994;27;109531;-65
2023/03/04 00:44:33;;;;;;;17.67;2.88;;;;;;;9.30;49.58;102560.97;5044084;27;108071;-65
2023/03/04 00:47:00;;;;;;;15.30;2.80;;;;;;;9.28;49.61;102553.06;5062991;27;124712;-64
2023/03/04 00:49:27;;;;;;;11.23;2.45;;;;;;;9.28;49.70;102557.47;5062125;27;123866;-65
2023/03/04 00:51:54;;;;;;;11.70;2.20;;;;;;;9.25;49.53;102547.81;5048377;27;108106;-64
2023/03/04 00:54:21;;;;;;;14.68;2.28;;;;;;;9.26;49.49;102551.34;5039965;27;108388;-64
2023/03/04 00:56:49;;;;;;;10.95;2.60;;;;;;;9.26;49.61;102564.56;5062575;27;124182;-64
2023/03/04 00:59:16;;;;;;;13.57;2.40;;;;;;;9.25;49.49;102554.84;5059980;27;124705;-64
2023/03/04 01:01:43;;;;;;;11.38;2.28;;;;;;;9.24;49.50;102555.78;5060501;27;109148;-65
2023/03/04 01:04:10;;;;;;;13.52;2.20;;;;;;;9.24;49.66;102555.78;5064102;27;109312;-65
2023/03/04 01:06:37;;;;;;;15.43;2.28;;;;;;;9.24;49.27;102561.06;5054334;27;123016;-65
2023/03/04 01:09:05;;;;;;;11.93;2.08;;;;;;;9.23;49.35;102554.91;5049740;27;123640;-65
2023/03/04 01:11:32;;;;;;;14.27;2.35;;;;;;;9.23;49.35;102565.47;5050731;27;110183;-66
2023/03/04 01:13:59;;;;;;;16.67;2.45;;;;;;;9.24;49.41;102550.47;5054039;27;112062;-65
2023/03/04 01:16:26;;;;;;;14.52;2.25;;;;;;;9.26;49.70;102553.97;5050390;27;123522;-65
2023/03/04 01:18:53;;;;;;;15.50;2.40;;;;;;;9.27;49.53;102550.47;5044259;27;123418;-65
2023/03/04 01:21:21;;;;;;;11.95;2.72;;;;;;;9.28;49.40;102552.19;5059608;27;111678;-65
2023/03/04 01:23:48;;;;;;;14.30;2.05;;;;;;;9.28;49.53;102552.19;5056319;27;109066;-65
2023/03/04 01:26:15;;;;;;;9.02;1.80;;;;;;;9.28;49.62;102552.19;5058793;27;124059;-65
2023/03/04 01:28:42;;;;;;;13.30;2.05;;;;;;;9.29;49.51;102548.66;5035383;27;123562;-65
2023/03/04 01:31:09;;;;;;;13.25;2.65;;;;;;;9.28;49.56;102552.19;5062347;27;109537;-65
2023/03/04 01:33:37;;;;;;;11.15;1.95;;;;;;;9.30;49.85;102550.41;5046063;27;108326;-64
2023/03/04 01:36:04;;;;;;;13.57;2.35;;;;;;;9.30;49.49;102545.13;5063544;27;124345;-65
2023/03/04 01:38:31;;;;;;;11.80;2.58;;;;;;;9.29;49.73;102549.53;5062499;27;124211;-64
2023/03/04 01:41:00;;;;;;;16.40;2.97;;;;;;;9.27;49.77;102545.16;5068475;27;109434;-65
2023/03/04 01:43:30;;;;;;;14.32;2.53;;;;;;;9.27;49.90;102539.88;5055500;27;109295;-65
2023/03/04 01:45:57;;;;;;;11.52;2.13;;;;;;;9.27;49.80;102534.59;5054689;27;124554;-65
2023/03/04 01:48:30;;;;;;;8.85;2.30;;;;;;;9.25;49.57;102536.34;5042999;27;123091;-65
2023/03/04 01:51:02;;;;;;;18.17;2.53;;;;;;;9.25;49.65;102536.34;5069412;27;109318;-65
2023/03/04 01:53:31;;;;;;;10.23;2.60;;;;;;;9.25;49.67;102539.00;5062586;27;109114;-65
2023/03/04 01:56:24;;;;;;;12.80;2.08;;;;;;;9.23;49.71;102527.56;5050422;27;124145;-65
2023/03/04 01:59:23;;;;;;;12.77;2.38;;;;;;;9.19;49.78;102526.72;5034817;27;124166;-65
2023/03/04 02:01:53;;;;;;;8.00;2.05;;;;;;;9.18;49.90;102524.13;5046962;27;109333;-65
2023/03/04 02:04:29;;;;;;;9.15;1.85;;;;;;;9.15;49.88;102525.91;5048133;27;109178;-65
2023/03/04 02:06:58;;;;;;;13.02;2.15;;;;;;;9.14;49.58;102513.59;5035776;27;123631;-65
2023/03/04 02:09:27;;;;;;;9.75;2.22;;;;;;;9.14;49.84;102518.88;5068136;27;124618;-65
2023/03/04 02:11:55;;;;;;;8.23;2.00;;;;;;;9.13;49.70;102514.47;5029124;27;108462;-65
2023/03/04 02:14:23;;;;;;;11.40;1.88;;;;;;;9.14;50.17;102507.44;5060886;27;109052;-65
2023/03/04 02:16:51;;;;;;;11.27;1.80;;;;;;;9.16;49.88;102511.78;5056998;27;124481;-65
2023/03/04 02:19:38;;;;;;;15.60;1.90;;;;;;;9.14;50.14;102508.28;5046649;27;122778;-65
2023/03/04 02:22:06;;;;;;;14.43;2.17;;;;;;;9.16;49.67;102498.56;5033998;27;108455;-65
2023/03/04 02:24:42;;;;;;;9.07;2.05;;;;;;;9.16;50.17;102506.50;5050463;27;109230;-65
2023/03/04 02:27:10;;;;;;;9.90;2.10;;;;;;;9.18;49.90;102509.13;5033577;27;123292;-65
2023/03/04 02:29:39;;;;;;;10.45;1.67;;;;;;;9.20;50.05;102501.19;5043967;27;123548;-64
2023/03/04 02:32:11;;;;;;;16.70;2.47;;;;;;;9.20;50.04;102503.84;5061939;27;110046;-64
2023/03/04 02:34:45;;;;;;;10.85;2.00;;;;;;;9.20;50.25;102502.06;5054489;27;109221;-64
2023/03/04 02:37:14;;;;;;;11.70;1.80;;;;;;;9.20;50.23;102501.19;5041335;27;124545;-64
2023/03/04 02:39:45;;;;;;;13.05;2.28;;;;;;;9.19;50.13;102495.00;5044105;27;123164;-64
2023/03/04 02:42:13;;;;;;;17.13;2.28;;;;;;;9.19;50.35;102499.44;5058672;27;109816;-64
2023/03/04 02:44:45;;;;;;;10.65;1.92;;;;;;;9.18;50.07;102490.63;5052087;27;108142;-64
2023/03/04 02:47:16;;;;;;;11.77;2.03;;;;;;;9.17;50.13;102491.50;5043293;27;123261;-64
2023/03/04 02:49:45;;;;;;;11.35;1.88;;;;;;;9.16;50.34;102489.78;5051433;27;123430;-64
2023/03/04 02:52:18;;;;;;;11.02;2.17;;;;;;;9.14;50.06;102489.78;5057687;27;110875;-64
2023/03/04 02:54:46;;;;;;;12.70;2.10;;;;;;;9.14;50.15;102491.56;5060561;27;109939;-63
2023/03/04 02:57:14;;;;;;;10.88;2.22;;;;;;;9.14;50.23;102492.44;5053144;27;123857;-64
2023/03/04 02:59:45;;;;;;;12.18;1.85;;;;;;;9.15;50.15;102488.91;5041699;27;123580;-63
2023/03/04 03:02:17;;;;;;;8.45;1.90;;;;;;;9.16;50.36;102481.84;5049765;27;108336;-64
2023/03/04 03:04:44;;;;;;;7.85;2.10;;;;;;;9.16;50.33;102480.06;5053297;27;109209;-65
2023/03/04 03:07:14;;;;;;;10.27;2.03;;;;;;;9.16;50.41;102482.72;5039384;27;123060;-64
2023/03/04 03:09:42;;;;;;;10.65;1.85;;;;;;;9.15;50.44;102473.06;5042487;27;123044;-65
2023/03/04 03:12:09;;;;;;;11.50;1.90;;;;;;;9.15;50.28;102470.41;5036527;27;108839;-65
2023/03/04 03:14:37;;;;;;;13.27;2.05;;;;;;;9.14;50.80;102471.28;5039667;27;107982;-65
2023/03/04 03:17:07;;;;;;;13.18;2.40;;;;;;;9.14;50.47;102468.66;5035366;27;123752;-65
2023/03/04 03:19:34;;;;;;;10.20;2.15;;;;;;;9.15;50.92;102467.75;5056248;27;124270;-65
2023/03/04 03:22:04;;;;;;;8.63;1.70;;;;;;;9.15;50.66;102462.47;5057081;27;109904;-65
2023/03/04 03:24:31;;;;;;;12.93;2.15;;;;;;;9.16;50.35;102464.22;5044157;27;108031;-65
2023/03/04 03:26:58;;;;;;;13.55;2.15;;;;;;;9.15;50.68;102464.22;5056229;27;123901;-65
2023/03/04 03:29:26;;;;;;;14.75;2.20;;;;;;;9.13;50.73;102469.53;5048189;27;123582;-65
2023/03/04 03:31:53;;;;;;;16.48;2.03;;;;;;;9.13;50.56;102464.25;5043762;27;108344;-66
2023/03/04 03:34:20;;;;;;;6.22;1.70;;;;;;;9.12;50.77;102465.16;5064698;27;109212;-65
2023/03/04 03:36:48;;;;;;;11.68;1.67;;;;;;;9.12;50.85;102457.22;5048532;27;123713;-64
2023/03/04 03:39:16;;;;;;;8.95;1.88;;;;;;;9.13;50.91;102464.25;5048630;27;123970;-64
2023/03/04 03:41:43;;;;;;;10.55;1.95;;;;;;;9.13;50.41;102458.09;5066232;27;110486;-65
2023/03/04 03:44:10;;;;;;;11.57;1.88;;;;;;;9.12;50.85;102456.34;5062197;27;109168;-65
2023/03/04 03:46:37;;;;;;;9.45;2.08;;;;;;;9.11;50.38;102458.09;5063760;27;125878;-64
2023/03/04 03:49:05;;;;;;;9.75;1.73;;;;;;;9.11;50.48;102459.88;5068347;27;123767;-64
2023/03/04 03:51:32;;;;;;;11.73;1.80;;;;;;;9.09;50.72;102462.53;5065105;27;109387;-65
2023/03/04 03:53:59;;;;;;;9.52;1.95;;;;;;;9.10;50.80;102453.72;5067875;27;111656;-64
2023/03/04 03:56:26;;;;;;;9.55;1.77;;;;;;;9.11;50.80;102450.16;5047094;27;122933;-64
2023/03/04 03:58:53;;;;;;;9.73;1.70;;;;;;;9.13;50.88;102458.94;5067329;27;123306;-64
2023/03/04 04:01:20;;;;;;;12.50;1.98;;;;;;;9.13;50.67;102453.66;5064122;27;109493;-64
2023/03/04 04:03:48;;;;;;;7.82;1.98;;;;;;;9.12;50.86;102454.56;5051252;27;109316;-64
2023/03/04 04:06:15;;;;;;;11.60;1.88;;;;;;;9.13;50.67;102453.66;5068058;27;124507;-64
2023/03/04 04:08:42;;;;;;;10.82;1.70;;;;;;;9.13;50.70;102458.94;5063214;27;124465;-64
2023/03/04 04:11:10;;;;;;;10.25;2.22;;;;;;;9.15;50.68;102462.47;5050706;27;108286;-64
2023/03/04 04:13:38;;;;;;;12.63;2.10;;;;;;;9.15;50.77;102451.91;5068823;27;108883;-64
2023/03/04 04:16:06;;;;;;;7.85;1.42;;;;;;;9.15;50.62;102451.91;5073806;27;124459;-64
2023/03/04 04:18:33;;;;;;;14.07;1.77;;;;;;;9.15;50.86;102451.91;5054025;27;124012;-64
2023/03/04 04:21:01;;;;;;;13.30;1.92;;;;;;;9.16;50.90;102453.63;5051352;27;109171;-64
2023/03/04 04:23:28;;;;;;;9.52;1.85;;;;;;;9.16;50.52;102458.91;5069910;27;109148;-65
2023/03/04 04:25:56;;;;;;;8.32;1.52;;;;;;;9.18;50.80;102461.56;5052582;27;123228;-64
2023/03/04 04:28:23;;;;;;;8.13;1.52;;;;;;;9.19;50.58;102457.13;5067736;27;123794;-64
2023/03/04 04:30:51;;;;;;;6.40;1.42;;;;;;;9.20;50.65;102453.59;5066627;27;110141;-64
2023/03/04 04:33:18;;;;;;;7.45;1.55;;;;;;;9.19;51.10;102458.00;5073052;27;109593;-65
2023/03/04 04:35:45;;;;;;;13.45;1.88;;;;;;;9.19;50.98;102459.78;5064501;27;124753;-64
2023/03/04 04:38:12;;;;;;;11.07;1.63;;;;;;;9.18;50.79;102458.91;5068098;27;123764;-64
2023/03/04 04:40:40;;;;;;;12.18;1.83;;;;;;;9.19;50.98;102462.41;5070278;27;108816;-64
2023/03/04 04:43:07;;;;;;;13.95;1.75;;;;;;;9.19;50.97;102458.00;5071310;27;109238;-64
2023/03/04 04:45:34;;;;;;;8.82;1.45;;;;;;;9.20;50.87;102469.47;5066849;27;124437;-65
2023/03/04 04:48:02;;;;;;;10.40;1.85;;;;;;;9.20;50.80;102464.19;5068820;27;123776;-63
2023/03/04 04:50:29;;;;;;;11.25;1.67;;;;;;;9.18;50.62;102461.56;5068041;27;109236;-63
2023/03/04 04:52:59;;;;;;;8.85;1.60;;;;;;;9.16;50.62;102458.91;5065562;27;108897;-63
2023/03/04 04:55:27;;;;;;;10.55;2.13;;;;;;;9.16;50.84;102461.56;5064395;27;125869;-64
2023/03/04 04:57:54;;;;;;;9.05;2.17;;;;;;;9.18;50.87;102460.69;5064886;27;124715;-64
2023/03/04 05:00:21;;;;;;;8.60;1.38;;;;;;;9.16;50.62;102464.22;5064069;27;109315;-64
2023/03/04 05:02:48;;;;;;;6.63;1.45;;;;;;;9.19;50.93;102467.72;5050987;27;109258;-65
2023/03/04 05:05:16;;;;;;;11.35;1.75;;;;;;;9.16;50.88;102469.50;5066318;27;124694;-64
2023/03/04 05:07:43;;;;;;;8.52;1.58;;;;;;;9.15;50.82;102472.16;5058828;27;124014;-65
2023/03/04 05:10:10;;;;;;;12.70;2.03;;;;;;;9.13;50.84;102464.25;5066673;27;109472;-64
2023/03/04 05:12:37;;;;;;;10.90;1.67;;;;;;;9.13;50.57;102464.25;5066877;27;108843;-65
2023/03/04 05:15:05;;;;;;;9.27;1.40;;;;;;;9.10;50.89;102469.59;5061421;27;124073;-64
2023/03/04 05:17:32;;;;;;;10.30;1.50;;;;;;;9.09;50.96;102459.03;5057983;27;124137;-65
2023/03/04 05:19:59;;;;;;;12.50;1.70;;;;;;;9.06;50.96;102462.59;5049439;27;109365;-65
2023/03/04 05:22:26;;;;;;;8.30;1.55;;;;;;;9.05;50.68;102471.41;5063709;27;110306;-65
2023/03/04 05:24:54;;;;;;;9.13;1.50;;;;;;;9.05;50.61;102463.47;5059139;27;124409;-65
2023/03/04 05:27:21;;;;;;;10.00;1.52;;;;;;;9.05;50.91;102466.13;5058321;27;124376;-65
2023/03/04 05:29:48;;;;;;;10.00;1.30;;;;;;;9.05;51.10;102460.81;5047581;27;108386;-65
2023/03/04 05:32:15;;;;;;;7.07;1.50;;;;;;;9.05;51.13;102466.13;5065185;27;108646;-63
2023/03/04 05:34:42;;;;;;;8.80;1.50;;;;;;;9.06;51.01;102459.06;5045816;27;123072;-63
2023/03/04 05:37:09;;;;;;;10.00;1.45;;;;;;;9.05;50.68;102466.13;5063828;27;124594;-63
2023/03/04 05:39:37;;;;;;;9.45;1.55;;;;;;;9.06;50.83;102469.63;5062055;27;109997;-62
2023/03/04 05:42:04;;;;;;;8.43;1.55;;;;;;;9.05;51.13;102459.97;5062684;27;109650;-63
2023/03/04 05:44:31;;;;;;;8.98;1.20;;;;;;;9.04;51.08;102468.78;5062580;27;124106;-62
2023/03/04 05:46:58;;;;;;;7.72;0.95;;;;;;;9.01;51.21;102469.69;5061574;27;123891;-63
2023/03/04 05:49:25;;;;;;;6.38;1.00;;;;;;;9.01;50.71;102472.34;5066913;27;109316;-62
2023/03/04 05:51:52;;;;;;;9.88;1.08;;;;;;;9.00;51.25;102465.28;5064562;27;108740;-62
2023/03/04 05:54:20;;;;;;;5.20;0.98;;;;;;;9.00;51.21;102475.84;5041344;27;124100;-62
2023/03/04 05:56:47;;;;;;;8.68;1.10;;;;;;;9.00;50.83;102478.50;5048580;27;122725;-62
2023/03/04 05:59:19;;;;;;;4.15;1.15;;;;;;;8.99;50.95;102476.78;5061452;27;109556;-62
2023/03/04 06:01:47;;;;;;;6.20;1.13;;;;;;;8.99;51.15;102476.78;5064554;27;109151;-62
2023/03/04 06:04:14;;;;;;;7.10;1.00;;;;;;;9.00;51.04;102478.50;5066115;27;123859;-62
2023/03/04 06:06:41;;;;;;;8.70;0.93;;;;;;;9.01;50.96;102472.34;5066975;27;124420;-62
2023/03/04 06:09:08;;;;;;;9.57;1.30;;;;;;;9.01;50.88;102480.25;5076139;27;110302;-62
2023/03/04 06:11:35;;;;;;;11.82;1.58;;;;;;;9.02;50.99;102476.72;5071064;27;110465;-65
2023/03/04 06:14:03;;;;;;;6.28;1.20;;;;;;;9.01;50.83;102474.97;5065129;27;123197;-65
2023/03/04 06:16:30;;;;;;;7.68;1.25;;;;;;;9.01;50.80;102480.25;5053182;27;124350;-65
2023/03/04 06:18:57;;;;;;;5.70;1.02;;;;;;;9.01;51.30;102474.13;5064581;27;108938;-66
2023/03/04 06:21:25;;;;;;;7.47;1.40;;;;;;;9.00;51.20;102481.16;5069733;27;109512;-65
2023/03/04 06:23:52;;;;;;;6.05;1.15;;;;;;;9.00;51.19;102485.56;5069172;27;124927;-63
2023/03/04 06:26:19;;;;;;;8.98;1.25;;;;;;;9.00;51.03;102489.06;5066825;27;123675;-63
2023/03/04 06:28:46;;;;;;;6.13;1.17;;;;;;;9.00;51.24;102488.22;5066888;27;109137;-62
2023/03/04 06:31:14;;;;;;;5.13;1.38;;;;;;;9.00;50.77;102488.22;5064903;27;108945;-62
2023/03/04 06:33:41;;;;;;;5.18;0.98;;;;;;;9.00;51.24;102488.22;5047105;27;124715;-63
2023/03/04 06:36:08;;;;;;;7.57;1.38;;;;;;;9.01;51.33;102488.19;5066912;27;124291;-63
2023/03/04 06:38:35;;;;;;;4.93;1.40;;;;;;;9.01;51.26;102495.25;5069301;27;108948;-63
2023/03/04 06:41:11;;;;;;;8.45;1.30;;;;;;;9.00;51.02;102489.06;5070239;27;108700;-62
2023/03/04 06:43:38;;;;;;;3.63;1.20;;;;;;;9.01;51.08;102490.84;5068335;27;123919;-62
2023/03/04 06:46:06;;;;;;;8.30;1.23;;;;;;;9.01;50.98;102496.13;5068604;27;124849;-65
2023/03/04 06:48:34;;;;;;;6.13;1.27;;;;;;;9.02;51.08;102492.56;5064738;27;109307;-64
2023/03/04 06:51:09;;;;;;;5.70;1.10;;;;;;;9.02;51.04;102492.56;5066383;27;108836;-62
2023/03/04 06:53:37;;;;;;;5.40;1.15;;;;;;;9.02;51.08;102497.84;5069563;27;123812;-63
2023/03/04 06:56:06;;;;;;;4.93;0.90;;;;;;;9.02;51.17;102495.22;5072306;27;123778;-62
2023/03/04 06:58:33;;;;;;;10.25;1.70;;;;;;;9.02;51.23;102497.00;5048469;27;110112;-62
2023/03/04 07:01:19;;;;;;;8.27;1.10;;;;;;;9.01;51.19;102492.63;5064302;27;110004;-62
2023/03/04 07:03:47;;;;;;;2.92;1.17;;;;;;;9.01;51.20;102501.41;5069474;27;124042;-62
2023/03/04 07:06:18;;;;;;;3.97;0.88;;;;;;;9.01;51.44;102501.41;5067250;27;123706;-62
2023/03/04 07:08:45;;;;;;;6.55;1.05;;;;;;;9.02;51.03;102489.94;5048767;27;108629;-62
2023/03/04 07:11:14;;;;;;;5.70;1.30;;;;;;;9.03;51.40;102499.63;5061790;27;109204;-62
2023/03/04 07:13:41;;;;;;;8.32;1.38;;;;;;;9.05;51.55;102503.13;5069702;27;123926;-63
2023/03/04 07:16:12;;;;;;;5.00;1.17;;;;;;;9.06;51.52;102499.59;5067264;27;123936;-62
2023/03/04 07:18:40;;;;;;;8.20;1.63;;;;;;;9.09;51.34;102499.53;5054246;27;109340;-62
2023/03/04 07:21:07;;;;;;;8.50;1.20;;;;;;;9.11;51.59;102503.03;5063152;27;108968;-63
2023/03/04 07:23:35;;;;;;;4.57;1.20;;;;;;;9.13;51.31;102506.53;5065019;27;124802;-62
2023/03/04 07:26:03;;;;;;;4.35;1.10;;;;;;;9.14;51.46;102508.28;5072145;27;124446;-62
2023/03/04 07:28:31;;;;;;;3.95;1.35;;;;;;;9.17;51.35;102507.38;5064443;27;109273;-63
2023/03/04 07:31:31;;;;;;;10.80;1.45;;;;;;;9.18;51.61;102513.56;5068378;27;109588;-62
2023/03/04 07:34:02;;;;;;;7.45;1.00;;;;;;;9.19;51.59;102510.00;5031146;27;124020;-62
2023/03/04 07:36:30;;;;;;;4.60;1.13;;;;;;;9.19;51.57;102512.66;5052787;27;124241;-62
2023/03/04 07:38:57;;;;;;;6.32;1.25;;;;;;;9.20;51.64;102514.41;5064875;27;109052;-62
2023/03/04 07:41:26;;;;;;;3.38;1.05;;;;;;;9.24;51.41;102518.75;5070129;27;109234;-62
2023/03/04 07:43:55;;;;;;;8.70;1.70;;;;;;;9.27;51.77;102516.09;5063894;27;124579;-62
2023/03/04 07:46:23;;;;;;;6.15;1.20;;;;;;;9.28;51.57;102520.47;5056767;27;124395;-62
2023/03/04 07:48:50;;;;;;;8.70;1.20;;;;;;;9.30;51.64;102518.66;5060900;27;110802;-61
2023/03/04 07:51:20;;;;;;;4.22;1.02;;;;;;;9.32;51.56;102522.16;5052547;27;109797;-63
2023/03/04 07:53:52;;;;;;;6.22;1.27;;;;;;;9.34;51.46;102525.66;5067609;27;125101;-63
2023/03/04 07:56:27;;;;;;;6.75;1.27;;;;;;;9.35;51.75;102532.72;5060895;27;123964;-64
2023/03/04 07:58:55;;;;;;;5.65;1.13;;;;;;;9.37;51.79;102530.94;5056269;27;109191;-63
2023/03/04 08:01:25;;;;;;;3.58;1.00;;;;;;;9.37;51.46;102530.94;5058525;27;108773;-63
2023/03/04 08:03:53;;;;;;;5.95;1.10;;;;;;;9.39;51.70;102528.28;5066865;27;125042;-64
2023/03/04 08:06:21;;;;;;;9.48;1.30;;;;;;;9.41;51.87;102526.47;5058884;27;123766;-62
2023/03/04 08:08:54;;;;;;;6.82;1.08;;;;;;;9.45;51.55;102536.97;5066895;27;109272;-62
2023/03/04 08:11:21;;;;;;;8.63;1.27;;;;;;;9.47;51.49;102537.84;5065145;27;109251;-63
2023/03/04 08:13:48;;;;;;;11.43;1.40;;;;;;;9.50;51.64;102537.81;5046704;27;123796;-63
2023/03/04 08:16:17;;;;;;;7.57;1.48;;;;;;;9.52;51.65;102529.84;5064851;27;124277;-62
2023/03/04 08:18:48;;;;;;;6.13;1.38;;;;;;;9.57;52.02;102532.41;5051973;27;108186;-62
2023/03/04 08:21:18;;;;;;;4.97;1.38;;;;;;;9.63;51.89;102537.66;5071089;27;109273;-63
2023/03/04 08:23:45;;;;;;;7.00;1.30;;;;;;;9.69;52.08;102542.84;5067393;27;124067;-62
2023/03/04 08:26:23;;;;;;;4.97;1.13;;;;;;;9.76;52.09;102549.81;5035988;27;122808;-62
2023/03/04 08:28:51;;;;;;;8.80;1.40;;;;;;;9.81;52.08;102547.09;5063543;27;109251;-62
2023/03/04 08:31:19;;;;;;;10.10;1.65;;;;;;;9.85;51.83;102543.50;5069511;27;108023;-62
2023/03/04 08:33:47;;;;;;;5.72;1.23;;;;;;;9.88;52.26;102546.97;5067630;27;125157;-62
2023/03/04 08:36:14;;;;;;;8.38;1.00;;;;;;;9.93;52.08;102542.50;5065757;27;124102;-62
2023/03/04 08:38:42;;;;;;;3.85;1.08;;;;;;;9.96;51.87;102546.00;5071227;27;110186;-63
2023/03/04 08:41:09;;;;;;;4.75;1.40;;;;;;;9.99;52.01;102543.31;5072459;27;110049;-61
2023/03/04 08:43:36;;;;;;;5.43;1.00;;;;;;;10.01;52.18;102544.16;5072290;27;123899;-62
2023/03/04 08:46:05;;;;;;;5.28;1.10;;;;;;;10.05;52.09;102537.91;5060777;27;124289;-62
2023/03/04 08:48:32;;;;;;;4.25;0.93;;;;;;;10.10;52.29;102544.88;5063410;27;109146;-64
2023/03/04 08:51:00;;;;;;;5.88;1.50;;;;;;;10.16;52.27;102537.75;5068248;27;109365;-64
2023/03/04 08:53:27;;;;;;;3.85;0.90;;;;;;;10.21;52.22;102542.06;5069241;27;124505;-64
2023/03/04 08:55:54;;;;;;;5.65;0.90;;;;;;;10.27;52.47;102541.97;5070285;27;124159;-63
2023/03/04 08:58:21;;;;;;;4.78;0.90;;;;;;;10.36;52.50;102540.09;5065389;27;109107;-64
2023/03/04 09:00:50;;;;;;;6.75;1.17;;;;;;;10.42;52.34;102534.69;5067670;27;108827;-63
2023/03/04 09:03:19;;;;;;;6.30;1.15;;;;;;;10.48;52.23;102529.28;5068888;27;124306;-64
2023/03/04 09:05:47;;;;;;;4.85;0.80;;;;;;;10.53;52.32;102532.75;5064565;27;124382;-64
2023/03/04 09:08:15;;;;;;;4.18;0.90;;;;;;;10.59;52.17;102523.81;5065311;27;109587;-64
2023/03/04 09:10:44;;;;;;;5.70;1.20;;;;;;;10.66;52.31;102528.97;5064391;27;109035;-62
2023/03/04 09:13:13;;;;;;;6.57;1.17;;;;;;;10.73;52.12;102528.84;5061867;27;124396;-63
2023/03/04 09:15:46;;;;;;;4.75;1.20;;;;;;;10.78;52.00;102529.66;5046555;27;123544;-64
2023/03/04 09:18:14;;;;;;;4.60;1.00;;;;;;;10.82;52.14;102528.69;5066792;27;109466;-64
2023/03/04 09:20:42;;;;;;;6.55;1.20;;;;;;;10.87;51.87;102521.53;5062336;27;109263;-64
2023/03/04 09:23:09;;;;;;;3.28;1.05;;;;;;;10.93;51.81;102515.22;5063373;27;124249;-64
2023/03/04 09:25:37;;;;;;;4.45;1.13;;;;;;;10.99;52.05;102521.25;5062160;27;124560;-64
2023/03/04 09:28:05;;;;;;;6.90;1.00;;;;;;;11.02;51.84;102510.63;5046827;27;108994;-63
2023/03/04 09:30:34;;;;;;;3.58;1.00;;;;;;;11.06;51.84;102507.00;5050121;27;108786;-64
2023/03/04 09:33:01;;;;;;;6.90;1.15;;;;;;;11.11;51.62;102517.47;5070265;27;123947;-64
2023/03/04 09:35:29;;;;;;;4.38;1.00;;;;;;;11.14;51.92;102513.91;5066441;27;124934;-62
2023/03/04 09:37:57;;;;;;;6.25;1.10;;;;;;;11.19;51.69;102512.03;5063791;27;109647;-62
2023/03/04 09:40:55;;;;;;;2.67;0.82;;;;;;;11.21;51.69;102504.94;5052947;27;107817;-62
2023/03/04 09:43:28;;;;;;;2.38;0.60;;;;;;;11.22;51.57;102504.00;5052220;27;124160;-62
2023/03/04 09:45:58;;;;;;;3.83;0.90;;;;;;;11.25;51.44;102501.31;5075033;27;123919;-63
2023/03/04 09:48:28;;;;;;;2.15;0.77;;;;;;;11.30;51.76;102504.72;5070103;27;109825;-62
2023/03/04 09:51:22;;;;;;;5.32;1.00;;;;;;;11.37;51.62;102506.34;5070182;27;109429;-62
2023/03/04 09:54:05;;;;;;;2.78;0.73;;;;;;;11.42;51.59;102499.16;5049426;27;123862;-62
2023/03/04 09:56:40;;;;;;;4.15;1.10;;;;;;;11.44;51.40;102507.94;5065654;27;124594;-65
2023/03/04 09:59:29;;;;;;;2.22;0.90;;;;;;;11.42;51.26;102504.47;5053565;27;108180;-63
2023/03/04 10:02:13;;;;;;;3.60;0.85;;;;;;;11.36;51.24;102501.94;5068208;27;108844;-64
2023/03/04 10:04:52;;;;;;;2.42;0.90;;;;;;;11.32;51.29;102502.94;5069687;27;124132;-64
2023/03/04 10:07:26;;;;;;;3.47;1.00;;;;;;;11.32;51.26;102502.94;5069962;27;124467;-64
2023/03/04 10:10:01;;;;;;;6.60;1.10;;;;;;;11.30;51.31;102505.59;5071545;27;108987;-64
2023/03/04 10:12:31;;;;;;;3.47;1.00;;;;;;;11.30;51.46;102504.72;5064925;27;108827;-64
2023/03/04 10:15:26;;;;;;;3.10;1.00;;;;;;;11.26;51.43;102503.94;5049036;27;124019;-63
2023/03/04 10:18:02;;;;;;;1.58;0.70;;;;;;;11.24;51.42;102499.53;5073253;27;124064;-64
2023/03/04 10:20:48;;;;;;;2.83;0.90;;;;;;;11.21;51.61;102510.25;5070635;27;110083;-64
2023/03/04 10:23:20;;;;;;;6.13;1.02;;;;;;;11.19;51.69;102498.75;5051469;27;109732;-63
2023/03/04 10:25:52;;;;;;;2.78;0.90;;;;;;;11.16;51.50;102497.06;5067857;27;123952;-63
2023/03/04 10:28:25;;;;;;;4.10;1.20;;;;;;;11.16;51.94;102507.66;5072420;27;123868;-63
2023/03/04 10:30:58;;;;;;;3.38;1.08;;;;;;;11.17;51.79;102497.91;5065222;27;109310;-64
2023/03/04 10:33:36;;;;;;;3.58;1.15;;;;;;;11.19;51.77;102498.75;5074033;27;109376;-63
2023/03/04 10:36:44;;;;;;;3.67;1.00;;;;;;;11.23;51.88;102503.13;5071177;27;124445;-64
2023/03/04 10:39:17;;;;;;;4.53;1.10;;;;;;;11.24;51.86;102499.53;4992391;28;123613;-63
2023/03/04 10:41:54;;;;;;;1.63;0.90;;;;;;;11.25;52.21;102496.88;4991817;28;109217;-64
2023/03/04 10:44:22;;;;;;;3.67;0.98;;;;;;;11.30;52.12;102491.44;5036381;27;109242;-63
2023/03/04 10:46:54;;;;;;;6.30;1.00;;;;;;;11.35;52.12;102497.53;5065783;27;124044;-63
2023/03/04 10:49:23;;;;;;;4.72;1.00;;;;;;;11.40;52.06;102495.66;5066725;27;123759;-61
2023/03/04 10:52:17;;;;;;;3.05;1.10;;;;;;;11.43;52.05;102485.00;5061822;27;109220;-61
2023/03/04 10:54:52;;;;;;;6.03;0.90;;;;;;;11.45;51.99;102477.88;5060659;27;108767;-61
2023/03/04 10:57:28;;;;;;;1.80;0.77;;;;;;;11.49;52.00;102479.53;5049121;27;122852;-61
2023/03/04 11:00:00;;;;;;;4.05;1.00;;;;;;;11.56;52.16;102484.72;5059671;27;124184;-61
2023/03/04 11:02:33;;;;;;;3.58;1.00;;;;;;;11.61;52.04;102477.53;5060056;27;109649;-61
2023/03/04 11:05:21;;;;;;;2.42;1.00;;;;;;;11.65;52.01;102479.19;5056039;27;108905;-63
2023/03/04 11:07:58;;;;;;;4.20;0.90;;;;;;;11.70;52.11;102474.66;5056612;27;124014;-63
2023/03/04 11:10:39;;;;;;;3.90;1.10;;;;;;;11.80;52.32;102477.97;5055621;27;124194;-63
2023/03/04 11:13:09;;;;;;;2.58;0.90;;;;;;;11.88;52.05;102470.66;5057313;27;110028;-61
2023/03/04 11:16:01;;;;;;;3.05;0.80;;;;;;;11.96;51.78;102462.56;5056306;27;110182;-61
2023/03/04 11:18:45;;;;;;;3.15;1.10;;;;;;;12.00;51.80;102458.94;5074643;27;124172;-61
2023/03/04 11:21:25;;;;;;;3.83;1.20;;;;;;;12.04;51.70;102450.84;5060149;27;124475;-62
2023/03/04 11:23:57;;;;;;;2.00;0.90;;;;;;;12.11;51.78;102446.25;5062492;27;109477;-61
2023/03/04 11:26:40;;;;;;;3.40;1.10;;;;;;;12.15;51.70;102447.03;5064970;27;108822;-61
2023/03/04 11:29:16;;;;;;;2.72;1.02;;;;;;;12.15;51.56;102442.59;5066431;27;124712;-61
2023/03/04 11:31:49;;;;;;;4.30;1.10;;;;;;;12.16;51.41;102443.47;5067035;27;123406;-61